Time;durP1;ratioP1;P1;durP2;ratioP2;P2;SDS_P1;SDS_P2;PMS_P1;PMS_P2;Temp;Humidity;BMP_temperature;BMP_pressure;BME280_temperature;BME280_humidity;BME280_pressure;Samples;Min_cycle;Max_cycle;Signal;HPM_P1;HPM_P2
2021/10/29 00:01:48;;;;;;;6.45;4.00;;;;;;;17.21;47.87;100461.09;4148722;28;20045;-56
2021/10/29 00:03:51;;;;;;;7.53;4.03;;;;;;;17.28;47.58;100473.03;4148531;28;20057;-54
2021/10/29 00:05:54;;;;;;;6.63;3.60;;;;;;;17.29;47.57;100468.53;4148711;28;20045;-56
2021/10/29 00:07:56;;;;;;;;;;;;;;;17.26;47.82;100472.25;4148849;28;20042;-54
2021/10/29 00:09:58;;;;;;;6.75;4.00;;;;;;;17.24;47.92;100475.03;4148557;28;19921;-56
2021/10/29 00:12:01;;;;;;;6.15;4.00;;;;;;;17.26;47.66;100471.44;4148664;28;20069;-57
2021/10/29 00:14:04;;;;;;;6.68;4.00;;;;;;;17.15;47.51;100450.88;4147947;28;20050;-54
2021/10/29 00:16:06;;;;;;;5.57;3.67;;;;;;;17.17;47.94;100455.16;4154408;28;20037;-50
2021/10/29 00:18:08;;;;;;;6.88;3.80;;;;;;;17.19;47.90;100457.69;4157393;28;20045;-56
2021/10/29 00:20:11;;;;;;;6.60;4.00;;;;;;;17.23;47.71;100457.38;4148301;28;20056;-56
2021/10/29 00:22:13;;;;;;;6.80;3.60;;;;;;;17.22;48.04;100460.16;4148671;28;20049;-55
2021/10/29 00:24:15;;;;;;;6.93;3.85;;;;;;;17.25;47.97;100459.94;4148388;28;20418;-55
2021/10/29 00:26:17;;;;;;;;;;;;;;;17.24;47.96;100460.88;4148803;28;20125;-56
2021/10/29 00:28:19;;;;;;;6.03;3.58;;;;;;;17.19;47.89;100460.34;4148307;28;20032;-55
2021/10/29 00:30:22;;;;;;;8.10;3.63;;;;;;;17.15;47.93;100445.56;4148416;28;20068;-54
2021/10/29 00:32:29;;;;;;;7.40;3.85;;;;;;;17.22;47.87;100458.34;4132316;28;20137;-57
2021/10/29 00:34:31;;;;;;;5.90;3.33;;;;;;;17.22;47.96;100453.00;4146393;28;20434;-56
2021/10/29 00:36:33;;;;;;;6.45;3.67;;;;;;;17.15;47.49;100443.75;4148238;28;20046;-54
2021/10/29 00:38:35;;;;;;;6.15;3.78;;;;;;;17.22;47.98;100450.34;4148335;28;20108;-55
2021/10/29 00:40:39;;;;;;;;;;;;;;;17.20;48.03;100451.41;4148734;28;20046;-59
2021/10/29 00:42:42;;;;;;;6.53;3.50;;;;;;;17.03;47.83;100418.84;4148590;28;20433;-56
2021/10/29 00:44:44;;;;;;;6.53;3.83;;;;;;;17.15;47.98;100440.25;4148021;28;20054;-55
2021/10/29 00:46:46;;;;;;;;;;;;;;;17.18;47.97;100440.03;4148554;28;20108;-56
2021/10/29 00:48:49;;;;;;;6.40;3.97;;;;;;;17.13;48.03;100436.84;4148251;28;19925;-54
2021/10/29 00:50:51;;;;;;;6.20;3.50;;;;;;;17.09;47.84;100434.38;4148062;28;20096;-55
2021/10/29 00:52:54;;;;;;;6.80;3.70;;;;;;;17.13;47.70;100437.69;4148109;28;20050;-54
2021/10/29 00:54:57;;;;;;;6.70;4.03;;;;;;;17.13;47.88;100431.53;4147816;28;20093;-54
2021/10/29 00:56:59;;;;;;;6.55;3.80;;;;;;;17.18;47.64;100434.72;4147970;28;20045;-54
2021/10/29 00:59:01;;;;;;;;;;;;;;;17.16;48.31;100429.53;4148191;28;20104;-57
2021/10/29 01:01:03;;;;;;;8.10;3.92;;;;;;;17.11;47.87;100428.13;4147790;28;19979;-54
2021/10/29 01:03:05;;;;;;;6.80;3.90;;;;;;;17.13;48.15;100437.69;4148410;28;20046;-56
2021/10/29 01:05:08;;;;;;;;;;;;;;;17.13;48.07;100436.84;4148085;28;20220;-55
2021/10/29 01:07:11;;;;;;;;;;;;;;;17.09;47.99;100422.91;4148361;28;19925;-53
2021/10/29 01:09:13;;;;;;;6.32;3.95;;;;;;;16.95;47.95;100399.97;4146336;28;19925;-55
2021/10/29 01:11:19;;;;;;;6.68;3.80;;;;;;;17.11;48.10;100428.13;4136931;28;20057;-54
2021/10/29 01:13:22;;;;;;;6.82;3.58;;;;;;;17.05;47.92;100413.47;4152115;28;20460;-54
2021/10/29 01:15:25;;;;;;;6.95;3.83;;;;;;;17.08;48.30;100413.25;4153372;28;20042;-53
2021/10/29 01:17:28;;;;;;;5.75;3.60;;;;;;;17.11;47.82;100406.88;4142142;28;20046;-55
2021/10/29 01:19:33;;;;;;;6.15;3.65;;;;;;;17.12;48.19;100416.53;4147619;28;20490;-55
2021/10/29 01:21:35;;;;;;;7.47;3.60;;;;;;;17.05;48.16;100400.19;4144900;28;20042;-57
2021/10/29 01:23:37;;;;;;;;;;;;;;;17.08;48.01;100406.13;4148202;28;20046;-56
2021/10/29 01:25:39;;;;;;;6.18;3.33;;;;;;;17.06;48.15;100407.16;4147343;28;19975;-56
2021/10/29 01:27:41;;;;;;;6.70;3.80;;;;;;;17.02;47.93;100398.59;4147691;28;20088;-54
2021/10/29 01:29:46;;;;;;;5.97;3.63;;;;;;;17.08;48.08;100403.47;4147586;28;20049;-53
2021/10/29 01:31:48;;;;;;;6.10;3.45;;;;;;;16.92;48.00;100373.59;4147272;28;20050;-54
2021/10/29 01:33:50;;;;;;;6.05;3.58;;;;;;;17.02;47.95;100390.63;4147786;28;20056;-57
2021/10/29 01:35:52;;;;;;;;;;;;;;;17.06;48.37;100413.34;4147538;28;20045;-56
2021/10/29 01:37:54;;;;;;;5.88;3.55;;;;;;;17.02;48.15;100400.38;4147437;28;19983;-57
2021/10/29 01:39:56;;;;;;;6.35;3.70;;;;;;;17.06;48.13;100404.50;4147366;28;20506;-57
2021/10/29 01:41:58;;;;;;;;;;;;;;;17.04;48.21;100394.00;4147572;28;20500;-57
2021/10/29 01:44:02;;;;;;;7.28;3.92;;;;;;;17.01;48.13;100390.69;4131104;28;19922;-57
2021/10/29 01:46:04;;;;;;;7.88;3.72;;;;;;;16.97;48.31;100382.09;4138172;28;20046;-58
2021/10/29 01:48:06;;;;;;;;;;;;;;;17.02;48.06;100387.97;4147567;28;20100;-58
2021/10/29 01:50:09;;;;;;;6.28;3.38;;;;;;;17.01;48.32;100390.69;4147506;28;19921;-58
2021/10/29 01:52:11;;;;;;;6.40;3.53;;;;;;;16.98;48.37;100373.16;4146914;28;20371;-58
2021/10/29 01:54:13;;;;;;;;;;;;;;;17.00;48.31;100373.91;4147826;28;20410;-57
2021/10/29 01:56:16;;;;;;;6.78;3.85;;;;;;;16.87;48.06;100355.25;4147051;28;19922;-55
2021/10/29 01:58:18;;;;;;;6.00;3.35;;;;;;;16.95;48.35;100367.22;4146828;28;20581;-55
2021/10/29 02:00:20;;;;;;;;;;;;;;;16.99;48.35;100366.06;4147657;28;20161;-60
2021/10/29 02:02:22;;;;;;;6.13;3.53;;;;;;;16.97;48.40;100366.16;4146864;28;19921;-59
2021/10/29 02:04:24;;;;;;;5.95;3.53;;;;;;;16.98;48.16;100367.84;4147008;28;20394;-57
2021/10/29 02:06:26;;;;;;;;;;;;;;;16.98;48.42;100370.50;4147376;28;20038;-58
2021/10/29 02:08:30;;;;;;;5.65;3.50;;;;;;;16.96;48.12;100367.09;4147183;28;19948;-59
2021/10/29 02:10:32;;;;;;;7.05;3.60;;;;;;;16.94;48.22;100355.75;4147214;28;20498;-57
2021/10/29 02:12:34;;;;;;;;;;;;;;;16.97;48.35;100362.66;4147143;28;20054;-55
2021/10/29 02:14:36;;;;;;;6.55;3.67;;;;;;;16.92;48.24;100357.66;4148605;28;20492;-53
2021/10/29 02:16:39;;;;;;;5.68;3.47;;;;;;;16.95;48.56;100360.09;4146482;28;20042;-57
2021/10/29 02:18:41;;;;;;;5.28;3.30;;;;;;;16.90;48.43;100341.78;4147063;28;20576;-60
2021/10/29 02:20:44;;;;;;;;;;;;;;;16.94;48.36;100353.09;4147101;28;20695;-59
2021/10/29 02:22:46;;;;;;;6.50;3.50;;;;;;;16.87;48.37;100336.69;4146769;28;20402;-58
2021/10/29 02:24:48;;;;;;;7.80;4.07;;;;;;;16.87;48.18;100333.19;4146644;28;20477;-56
2021/10/29 02:26:50;;;;;;;;;;;;;;;16.93;48.47;100346.91;4147121;28;20104;-56
2021/10/29 02:28:52;;;;;;;6.00;3.47;;;;;;;16.87;48.23;100336.69;4146716;28;19921;-59
2021/10/29 02:30:55;;;;;;;6.15;3.47;;;;;;;16.90;48.39;100332.94;4145498;28;20141;-56
2021/10/29 02:32:57;;;;;;;6.72;3.40;;;;;;;16.91;48.41;100334.66;4146512;28;20557;-60
2021/10/29 02:35:00;;;;;;;;;;;;;;;16.93;48.34;100338.09;4147209;28;20042;-57
2021/10/29 02:37:02;;;;;;;7.00;3.58;;;;;;;16.87;48.54;100333.19;4146374;28;19922;-58
2021/10/29 02:39:04;;;;;;;5.68;3.70;;;;;;;16.91;48.09;100337.31;4146297;28;20042;-57
2021/10/29 02:41:07;;;;;;;6.55;3.65;;;;;;;16.92;48.41;100331.91;4146429;28;20046;-56
2021/10/29 02:43:09;;;;;;;;;;;;;;;16.90;48.64;100330.28;4146711;28;20045;-59
2021/10/29 02:45:12;;;;;;;6.57;3.47;;;;;;;16.86;48.30;100323.50;4146592;28;19925;-58
2021/10/29 02:47:14;;;;;;;5.95;3.42;;;;;;;16.88;48.52;100326.91;4146430;28;20042;-58
2021/10/29 02:49:17;;;;;;;5.85;3.42;;;;;;;16.82;48.42;100314.91;4146141;28;20092;-57
2021/10/29 02:51:18;;;;;;;;;;;;;;;16.89;48.44;100323.28;4146876;28;20046;-60
2021/10/29 02:53:20;;;;;;;5.22;3.00;;;;;;;16.85;48.12;100313.84;4146132;28;20399;-60
2021/10/29 02:55:23;;;;;;;5.10;3.38;;;;;;;16.85;48.33;100311.19;4146230;28;20092;-59
2021/10/29 02:57:25;;;;;;;7.32;3.83;;;;;;;16.88;48.01;100314.47;4146490;28;20502;-60
2021/10/29 02:59:27;;;;;;;;;;;;;;;16.86;48.42;100311.06;4146229;28;20053;-58
2021/10/29 03:01:29;;;;;;;5.40;2.88;;;;;;;16.71;48.41;100282.94;4146213;28;19921;-61
2021/10/29 03:03:31;;;;;;;5.10;3.03;;;;;;;16.86;48.64;100304.91;4146033;28;20042;-60
2021/10/29 03:05:37;;;;;;;;;;;;;;;16.85;48.31;100303.22;4146610;28;20054;-60
2021/10/29 03:07:39;;;;;;;5.60;3.42;;;;;;;16.83;48.60;100294.50;4146148;28;20004;-60
2021/10/29 03:09:41;;;;;;;6.30;3.50;;;;;;;16.85;48.17;100292.59;4145907;28;20615;-59
2021/10/29 03:11:43;;;;;;;5.45;3.22;;;;;;;16.83;48.03;100286.53;4145955;28;20099;-60
2021/10/29 03:13:45;;;;;;;6.25;3.30;;;;;;;16.83;48.57;100287.38;4147316;28;20068;-59
2021/10/29 03:15:49;;;;;;;6.75;3.10;;;;;;;16.78;48.31;100276.25;4150458;28;20455;-57
2021/10/29 03:17:51;;;;;;;6.55;3.40;;;;;;;16.84;48.18;100283.78;4162386;28;20103;-58
2021/10/29 03:19:53;;;;;;;;;;;;;;;16.84;48.42;100277.59;4149066;28;20279;-54
2021/10/29 03:21:55;;;;;;;7.30;3.22;;;;;;;16.81;48.36;100280.50;4143258;28;20345;-56
2021/10/29 03:23:57;;;;;;;;;;;;;;;16.80;48.68;100273.47;4146245;28;20042;-55
2021/10/29 03:25:59;;;;;;;5.90;2.88;;;;;;;16.79;48.32;100275.25;4145915;28;19948;-55
2021/10/29 03:28:02;;;;;;;5.45;2.90;;;;;;;16.79;48.65;100271.75;4145247;28;20111;-54
2021/10/29 03:30:05;;;;;;;5.35;3.10;;;;;;;16.81;48.52;100268.03;4145448;28;20100;-60
2021/10/29 03:32:08;;;;;;;5.70;3.15;;;;;;;16.80;48.18;100265.50;4145956;28;20045;-56
2021/10/29 03:34:10;;;;;;;5.85;3.38;;;;;;;16.79;48.44;100263.81;4145736;28;20108;-58
2021/10/29 03:36:13;;;;;;;6.07;3.20;;;;;;;16.75;48.24;100244.56;4145633;28;20046;-58
2021/10/29 03:40:41;;;;;;;6.82;3.22;;;;;;;16.76;48.37;100244.47;4145599;28;20112;-60
2021/10/29 03:45:03;;;;;;;5.85;3.20;;;;;;;16.79;48.40;100245.22;4145538;28;20498;-59
2021/10/29 03:47:05;;;;;;;7.75;3.30;;;;;;;16.72;48.11;100240.31;4145675;28;20552;-59
2021/10/29 03:51:49;;;;;;;7.00;3.17;;;;;;;16.70;48.54;100236.06;4145315;28;19976;-55
2021/10/29 03:53:56;;;;;;;5.85;3.13;;;;;;;16.71;48.16;100246.59;4145610;28;20050;-55
2021/10/29 03:56:00;;;;;;;5.03;2.90;;;;;;;16.71;48.19;100240.44;4145554;28;20054;-60
2021/10/29 03:58:02;;;;;;;6.05;3.33;;;;;;;16.73;48.22;100243.81;4145597;28;20526;-58
2021/10/29 04:00:04;;;;;;;;;;;;;;;16.73;48.49;100241.16;4144379;28;20054;-59
2021/10/29 04:02:11;;;;;;;6.15;3.30;;;;;;;16.70;48.44;100234.25;4145534;28;20491;-60
2021/10/29 04:04:13;;;;;;;5.22;3.00;;;;;;;16.72;48.09;100242.97;4145593;28;20049;-57
2021/10/29 04:06:16;;;;;;;;;;;;;;;16.72;48.80;100236.81;4145779;28;20464;-58
2021/10/29 04:08:19;;;;;;;4.63;2.90;;;;;;;16.63;48.29;100221.53;4145532;28;19967;-56
2021/10/29 04:10:25;;;;;;;5.32;2.75;;;;;;;16.71;48.49;100229.81;4145585;28;20042;-57
2021/10/29 04:12:27;;;;;;;5.05;2.88;;;;;;;16.70;48.46;100217.50;4145413;28;20042;-59
2021/10/29 04:14:30;;;;;;;6.07;3.08;;;;;;;16.65;48.11;100209.84;4145271;28;20402;-61
2021/10/29 04:16:36;;;;;;;;;;;;;;;16.70;48.57;100213.03;4149155;28;20042;-59
2021/10/29 04:18:38;;;;;;;5.93;3.33;;;;;;;16.69;48.39;100213.13;4145703;28;19976;-54
2021/10/29 04:20:41;;;;;;;5.28;2.85;;;;;;;16.60;48.17;100188.91;4145119;28;20057;-56
2021/10/29 04:22:43;;;;;;;8.82;3.20;;;;;;;16.65;48.25;100201.88;4145442;28;20112;-54
2021/10/29 04:24:45;;;;;;;6.47;3.17;;;;;;;16.61;48.07;100193.28;4145458;28;20610;-55
2021/10/29 04:26:48;;;;;;;;;;;;;;;16.69;48.65;100207.81;4145617;28;20484;-60
2021/10/29 04:28:55;;;;;;;6.28;3.00;;;;;;;16.65;48.21;100203.66;4145464;28;19921;-55
2021/10/29 04:31:00;;;;;;;5.28;3.00;;;;;;;16.67;48.34;100202.63;4145027;28;20046;-54
2021/10/29 04:33:06;;;;;;;5.88;2.92;;;;;;;16.67;48.13;100199.97;4145365;28;20049;-55
2021/10/29 04:35:10;;;;;;;4.75;2.85;;;;;;;16.67;48.27;100201.75;4145423;28;20054;-59
2021/10/29 04:37:13;;;;;;;5.88;3.00;;;;;;;16.69;48.25;100205.16;4144959;28;20088;-58
2021/10/29 04:39:15;;;;;;;6.15;3.05;;;;;;;16.68;48.30;100198.16;4146620;28;20410;-57
2021/10/29 04:41:17;;;;;;;4.97;2.78;;;;;;;16.68;48.22;100192.84;4148108;28;20096;-55
2021/10/29 04:43:19;;;;;;;;;;;;;;;16.66;48.25;100203.59;4147233;28;20042;-54
2021/10/29 04:45:21;;;;;;;4.78;2.60;;;;;;;16.59;48.48;100191.69;4148361;28;19972;-57
2021/10/29 04:47:23;;;;;;;6.22;3.10;;;;;;;16.58;48.35;100187.31;4147883;28;20047;-56
2021/10/29 04:49:25;;;;;;;5.93;2.78;;;;;;;16.56;48.26;100181.25;4146740;28;20049;-55
2021/10/29 04:51:28;;;;;;;5.07;2.67;;;;;;;16.65;48.41;100195.69;4132775;28;20046;-56
2021/10/29 04:53:30;;;;;;;5.85;3.00;;;;;;;16.65;48.42;100191.25;4147808;28;20124;-56
2021/10/29 04:55:32;;;;;;;6.43;3.10;;;;;;;16.61;48.26;100189.78;4148172;28;20100;-56
2021/10/29 04:57:34;;;;;;;5.07;2.80;;;;;;;16.65;48.28;100193.03;4147853;28;20045;-59
2021/10/29 04:59:36;;;;;;;;;;;;;;;16.64;48.40;100188.72;4148191;28;20510;-56
2021/10/29 05:01:38;;;;;;;5.82;2.85;;;;;;;16.61;48.64;100182.66;4148120;28;20441;-58
2021/10/29 05:03:42;;;;;;;6.88;2.90;;;;;;;16.60;48.47;100180.13;4147964;28;20042;-60
2021/10/29 05:05:44;;;;;;;5.72;3.08;;;;;;;16.60;48.40;100178.28;4132125;28;20047;-59
2021/10/29 05:07:49;;;;;;;5.55;2.72;;;;;;;16.61;48.28;100177.34;4139232;28;20065;-58
2021/10/29 05:09:51;;;;;;;5.97;3.25;;;;;;;16.53;48.19;100163.75;4147883;28;20065;-57
2021/10/29 05:11:53;;;;;;;;;;;;;;;16.60;48.47;100174.81;4148500;28;20524;-56
2021/10/29 05:13:55;;;;;;;6.43;2.88;;;;;;;16.56;48.10;100163.56;4156157;28;19924;-57
2021/10/29 05:15:58;;;;;;;5.95;2.60;;;;;;;16.54;48.46;100157.50;4153013;28;20037;-57
2021/10/29 05:18:01;;;;;;;5.45;2.72;;;;;;;16.60;48.53;100164.19;4156239;28;20462;-58
2021/10/29 05:20:05;;;;;;;5.65;2.88;;;;;;;16.60;48.43;100166.84;4147505;28;20049;-58
2021/10/29 05:22:08;;;;;;;5.07;2.75;;;;;;;16.52;48.35;100154.09;4147711;28;20476;-59
2021/10/29 05:24:10;;;;;;;5.03;2.65;;;;;;;16.55;48.61;100153.00;4147469;28;20552;-59
2021/10/29 05:26:12;;;;;;;;;;;;;;;16.58;48.45;100160.78;4148088;28;20054;-56
2021/10/29 05:28:14;;;;;;;6.07;3.03;;;;;;;16.51;48.49;100160.34;4147548;28;20570;-58
2021/10/29 05:30:16;;;;;;;;;;;;;;;16.55;48.65;100158.31;4147816;28;20058;-59
2021/10/29 05:32:18;;;;;;;6.30;2.80;;;;;;;16.54;48.45;100154.00;4147618;28;19967;-56
2021/10/29 05:34:20;;;;;;;;;;;;;;;16.53;48.67;100155.78;4147473;28;20489;-56
2021/10/29 05:36:22;;;;;;;5.28;2.58;;;;;;;16.46;48.64;100143.91;4147548;28;20007;-59
2021/10/29 05:38:24;;;;;;;;;;;;;;;16.53;48.62;100150.47;4147591;28;20049;-59
2021/10/29 05:40:26;;;;;;;6.10;2.97;;;;;;;16.50;48.36;100147.19;4147241;28;19929;-59
2021/10/29 05:42:28;;;;;;;5.18;2.88;;;;;;;16.53;48.56;100153.13;4147352;28;20053;-53
2021/10/29 05:44:30;;;;;;;;;;;;;;;16.53;48.69;100146.97;4147506;28;20038;-55
2021/10/29 05:46:33;;;;;;;6.15;3.03;;;;;;;16.51;48.21;100151.53;4147438;28;19921;-54
2021/10/29 05:48:38;;;;;;;4.88;2.60;;;;;;;16.45;48.54;100135.09;4147084;28;20733;-59
2021/10/29 05:50:47;;;;;;;4.93;3.00;;;;;;;16.49;48.42;100138.38;4161308;28;20049;-58
2021/10/29 05:52:49;;;;;;;5.28;2.53;;;;;;;16.52;48.38;100146.13;4147419;28;20061;-59
2021/10/29 05:56:56;;;;;;;5.68;2.70;;;;;;;16.50;48.49;100145.41;4147199;28;19925;-58
2021/10/29 05:59:03;;;;;;;;;;;;;;;16.50;48.70;100145.41;4147149;28;20402;-60
2021/10/29 06:01:05;;;;;;;5.20;2.55;;;;;;;16.44;48.44;100136.03;4146934;28;19925;-56
2021/10/29 06:03:09;;;;;;;5.18;2.72;;;;;;;16.50;48.34;100129.47;4147327;28;20434;-54
2021/10/29 06:05:12;;;;;;;7.18;3.00;;;;;;;16.51;48.52;100135.63;4146836;28;20478;-59
2021/10/29 06:07:14;;;;;;;4.80;2.63;;;;;;;16.51;48.42;100130.31;4146938;28;20099;-59
2021/10/29 06:09:16;;;;;;;;;;;;;;;16.50;48.84;100124.16;4147308;28;20104;-55
2021/10/29 06:11:19;;;;;;;5.07;2.53;;;;;;;16.34;48.37;100112.91;4146811;28;19929;-56
2021/10/29 06:13:21;;;;;;;6.93;3.05;;;;;;;16.38;48.21;100107.28;4151061;28;20041;-59
2021/10/29 06:15:24;;;;;;;5.07;2.53;;;;;;;16.50;48.74;100123.28;4152313;28;20042;-56
2021/10/29 06:17:27;;;;;;;4.45;2.45;;;;;;;16.42;48.76;100113.22;4141134;28;20049;-56
2021/10/29 06:19:29;;;;;;;4.72;2.70;;;;;;;16.42;48.21;100107.91;4146455;28;20096;-54
2021/10/29 06:21:36;;;;;;;;;;;;;;;16.49;48.73;100126.91;4143878;28;20053;-59
2021/10/29 06:23:51;;;;;;;7.53;2.80;;;;;;;16.47;48.39;100123.53;4146729;28;19929;-56
2021/10/29 06:25:56;;;;;;;6.32;2.72;;;;;;;16.41;48.39;100106.22;4146352;28;20053;-57
2021/10/29 06:30:31;;;;;;;6.72;2.80;;;;;;;16.47;48.37;100120.88;4145565;28;20046;-56
2021/10/29 06:32:33;;;;;;;5.28;2.63;;;;;;;16.44;48.66;100114.81;4146554;28;20117;-56
2021/10/29 06:34:36;;;;;;;6.65;2.80;;;;;;;16.43;48.64;100113.13;4146477;28;20549;-55
2021/10/29 06:36:40;;;;;;;5.63;2.65;;;;;;;16.49;48.68;100129.56;4146217;28;20050;-56
2021/10/29 06:38:43;;;;;;;5.22;2.80;;;;;;;16.43;48.25;100122.91;4146476;28;20050;-60
2021/10/29 06:40:46;;;;;;;4.75;2.80;;;;;;;16.49;48.14;100126.91;4145997;28;20050;-56
2021/10/29 06:42:55;;;;;;;6.72;2.78;;;;;;;16.46;48.59;100125.31;4146460;28;20088;-55
2021/10/29 07:01:18;;;;;;;5.28;2.58;;;;;;;16.45;48.52;100135.09;4145914;28;20139;-59
2021/10/29 07:03:49;;;;;;;5.07;2.60;;;;;;;16.46;48.74;100127.97;4135255;28;20049;-57
2021/10/29 07:41:36;;;;;;;6.20;2.83;;;;;;;16.35;48.44;100098.69;4154983;28;20457;-59
2021/10/29 07:43:46;;;;;;;5.10;2.40;;;;;;;16.41;48.38;100115.00;4145764;28;20046;-58
2021/10/29 07:45:48;;;;;;;5.13;2.42;;;;;;;16.37;48.43;100107.41;4145936;28;20072;-58
2021/10/29 07:47:51;;;;;;;6.13;2.75;;;;;;;16.42;48.40;100119.38;4145783;28;20041;-58
2021/10/29 07:49:53;;;;;;;;;;;;;;;16.43;48.48;100126.38;4135259;28;20104;-57
2021/10/29 07:51:57;;;;;;;6.45;2.47;;;;;;;16.36;48.62;100111.00;4146067;28;19921;-56
2021/10/29 07:53:59;;;;;;;5.05;2.53;;;;;;;16.31;48.80;100105.16;4145633;28;20053;-55
2021/10/29 07:56:02;;;;;;;;;;;;;;;16.43;48.82;100122.91;4146339;28;20552;-55
2021/10/29 07:58:04;;;;;;;6.20;2.65;;;;;;;16.42;48.62;100126.50;4145564;28;19921;-58
2021/10/29 08:00:08;;;;;;;5.15;2.80;;;;;;;16.33;48.43;100109.41;4145446;28;20054;-58
2021/10/29 08:02:10;;;;;;;4.15;2.10;;;;;;;16.38;48.58;100119.69;4145484;28;20436;-59
2021/10/29 08:04:15;;;;;;;4.60;2.30;;;;;;;16.45;48.54;100126.28;4145616;28;20108;-59
2021/10/29 08:06:17;;;;;;;5.57;2.70;;;;;;;16.39;48.69;100129.34;4145616;28;20410;-53
2021/10/29 08:08:20;;;;;;;;;;;;;;;16.44;48.81;100133.41;4146004;28;20502;-56
2021/10/29 08:10:22;;;;;;;4.85;2.22;;;;;;;16.38;48.44;100125.00;4145799;28;19921;-59
2021/10/29 08:12:24;;;;;;;5.80;2.28;;;;;;;16.40;48.75;100134.56;4145595;28;20080;-56
2021/10/29 08:14:26;;;;;;;;;;;;;;;16.44;48.67;100145.81;4149162;28;20046;-60
2021/10/29 08:16:28;;;;;;;4.80;2.38;;;;;;;16.42;49.02;100148.56;4157454;28;19967;-55
2021/10/29 08:18:33;;;;;;;;;;;;;;;16.41;48.65;100141.56;4163393;28;20054;-60
2021/10/29 08:20:36;;;;;;;5.38;2.40;;;;;;;16.32;48.42;100130.72;4148397;28;19921;-60
2021/10/29 08:22:39;;;;;;;7.28;2.65;;;;;;;16.39;48.71;100126.69;4148772;28;20452;-57
2021/10/29 08:24:42;;;;;;;5.68;2.20;;;;;;;16.42;48.76;100145.06;4148432;28;20037;-57
2021/10/29 08:26:44;;;;;;;5.57;2.15;;;;;;;16.45;48.38;100144.84;4148235;28;20046;-60
2021/10/29 08:28:46;;;;;;;;;;;;;;;16.44;48.72;100143.19;4148997;28;20097;-62
2021/10/29 08:30:49;;;;;;;4.53;2.15;;;;;;;16.40;48.63;100139.88;4148233;28;19933;-54
2021/10/29 08:32:52;;;;;;;5.10;2.35;;;;;;;16.40;48.50;100136.38;4148448;28;20046;-61
2021/10/29 08:34:54;;;;;;;6.45;2.38;;;;;;;16.36;48.72;100124.28;4147997;28;20053;-61
2021/10/29 08:36:57;;;;;;;;;;;;;;;16.44;48.93;100141.34;4148700;28;20049;-53
2021/10/29 08:38:59;;;;;;;6.68;2.38;;;;;;;16.41;48.90;100130.94;4148225;28;19943;-60
2021/10/29 08:41:06;;;;;;;5.43;2.50;;;;;;;16.47;48.42;100142.09;4144153;28;20054;-58
2021/10/29 08:43:09;;;;;;;6.07;2.33;;;;;;;16.47;48.16;100147.41;4148339;28;20501;-61
2021/10/29 08:45:11;;;;;;;;;;;;;;;16.46;48.93;100146.56;4148343;28;20547;-60
2021/10/29 08:47:14;;;;;;;5.82;2.47;;;;;;;16.44;48.71;100149.31;4148284;28;19922;-55
2021/10/29 08:49:17;;;;;;;4.72;2.30;;;;;;;16.46;48.64;100146.56;4148241;28;20100;-62
2021/10/29 08:51:19;;;;;;;5.13;2.17;;;;;;;16.35;48.60;100126.06;4147828;28;20050;-57
2021/10/29 08:53:22;;;;;;;;;;;;;;;16.45;48.71;100135.09;4148805;28;20089;-61
2021/10/29 08:55:26;;;;;;;4.82;2.22;;;;;;;16.35;48.60;100123.41;4147775;28;19921;-59
2021/10/29 08:57:28;;;;;;;5.03;2.40;;;;;;;16.39;48.51;100130.22;4148016;28;20057;-59
2021/10/29 08:59:32;;;;;;;;;;;;;;;16.46;48.81;100143.91;4148188;28;20045;-60
2021/10/29 09:01:59;;;;;;;6.32;2.50;;;;;;;16.45;48.93;100132.44;4148059;28;20156;-59
2021/10/29 09:04:04;;;;;;;4.32;2.22;;;;;;;16.36;48.36;100121.63;4137876;28;20494;-56
2021/10/29 09:06:33;;;;;;;5.50;2.30;;;;;;;16.45;48.57;100134.22;4146562;28;20034;-54
2021/10/29 09:31:25;;;;;;;12.45;2.70;;;;;;;16.63;49.59;100157.81;4140650;28;20046;-60
2021/10/29 09:33:47;;;;;;;11.95;2.78;;;;;;;16.64;49.54;100162.16;4136887;28;20045;-61
2021/10/29 09:35:49;;;;;;;10.47;2.60;;;;;;;16.59;49.54;100158.00;4147047;28;20496;-58
2021/10/29 09:38:08;;;;;;;;;;;;;;;16.67;50.22;100151.31;4146585;28;20049;-60
2021/10/29 09:40:13;;;;;;;12.63;2.85;;;;;;;16.70;49.66;100154.59;4147028;28;20511;-58
2021/10/29 09:42:17;;;;;;;19.25;3.28;;;;;;;16.62;50.42;100135.69;4146613;28;20556;-63
2021/10/29 09:44:19;;;;;;;17.73;3.10;;;;;;;16.80;49.91;100151.31;4146158;28;20409;-59
2021/10/29 09:46:55;;;;;;;23.17;3.38;;;;;;;16.81;50.75;100145.88;4137233;28;20039;-62
2021/10/29 09:49:08;;;;;;;23.77;3.53;;;;;;;16.94;50.56;100156.53;4136851;28;20046;-62
2021/10/29 09:51:13;;;;;;;21.80;3.55;;;;;;;16.95;50.08;100147.59;4146790;28;20050;-57
2021/10/29 09:53:37;;;;;;;16.38;2.75;;;;;;;16.98;49.69;100151.84;4146554;28;20049;-58
2021/10/29 09:55:50;;;;;;;14.07;3.03;;;;;;;16.95;50.24;100146.72;4130796;28;20050;-59
2021/10/29 09:57:52;;;;;;;11.85;2.97;;;;;;;17.00;50.05;100168.50;4141574;28;20042;-60
2021/10/29 09:59:56;;;;;;;14.30;2.90;;;;;;;17.02;49.79;100158.63;4146795;28;20522;-62
2021/10/29 10:01:59;;;;;;;20.95;6.72;;;;;;;17.01;49.86;100168.41;4146600;28;20061;-57
2021/10/29 10:04:02;;;;;;;23.70;8.25;;;;;;;17.05;50.13;100166.38;4146790;28;20046;-59
2021/10/29 10:06:05;;;;;;;28.38;12.23;;;;;;;17.01;50.69;100160.44;4145931;28;20046;-62
2021/10/29 10:08:09;;;;;;;22.55;11.65;;;;;;;17.04;50.45;100164.69;4146615;28;20037;-56
2021/10/29 10:10:11;;;;;;;22.92;11.85;;;;;;;17.06;50.29;100160.09;4146989;28;20420;-63
2021/10/29 10:12:15;;;;;;;33.92;14.02;;;;;;;17.16;50.32;100182.38;4146975;28;20046;-56
2021/10/29 10:14:19;;;;;;;26.02;11.27;;;;;;;17.20;50.50;100173.22;4153378;28;20046;-58
2021/10/29 10:16:23;;;;;;;26.25;10.35;;;;;;;17.15;50.44;100162.09;4154809;28;20052;-61
2021/10/29 10:18:26;;;;;;;17.55;7.32;;;;;;;17.36;50.42;100180.09;4152888;28;20129;-59
2021/10/29 10:20:29;;;;;;;20.52;7.28;;;;;;;17.40;50.19;100168.28;4142405;28;20630;-57
2021/10/29 10:22:37;;;;;;;16.45;6.78;;;;;;;17.53;50.27;100182.38;4134256;28;20069;-57
2021/10/29 10:24:41;;;;;;;19.23;6.78;;;;;;;17.62;50.30;100190.63;4144807;28;20491;-56
2021/10/29 10:29:25;;;;;;;14.52;5.10;;;;;;;17.82;49.99;100183.84;4136887;28;20049;-59
2021/10/29 10:41:56;;;;;;;13.05;4.05;;;;;;;18.26;49.46;100168.16;4146346;28;20570;-58
2021/10/29 10:43:57;;;;;;;11.13;3.80;;;;;;;18.35;49.35;100167.47;4145813;28;20135;-58
2021/10/29 10:46:19;;;;;;;9.30;3.65;;;;;;;18.39;49.11;100168.91;4141504;28;20054;-61
2021/10/29 10:48:28;;;;;;;11.00;3.72;;;;;;;18.54;49.14;100176.69;4146400;28;20049;-59
2021/10/29 10:50:35;;;;;;;8.02;3.38;;;;;;;18.58;49.17;100173.66;4142923;28;20042;-59
2021/10/29 10:53:02;;;;;;;10.93;3.40;;;;;;;18.73;49.20;100176.94;4141682;28;20097;-59
2021/10/29 10:55:13;;;;;;;8.82;3.30;;;;;;;18.78;49.39;100195.22;4145618;28;20050;-59
2021/10/29 11:07:03;;;;;;;8.35;3.50;;;;;;;19.23;50.64;100191.72;4144771;28;20053;-61
2021/10/29 11:11:29;;;;;;;299.60;169.05;;;;;;;19.33;50.32;100171.31;4145993;28;20038;-61
2021/10/29 11:13:43;;;;;;;248.82;148.95;;;;;;;19.50;50.15;100180.59;4145729;28;20046;-62
2021/10/29 11:16:03;;;;;;;177.88;114.30;;;;;;;19.59;49.84;100184.34;4145288;28;20038;-60
2021/10/29 11:18:13;;;;;;;117.70;72.82;;;;;;;19.68;49.60;100178.25;4137785;28;20049;-62
2021/10/29 11:20:41;;;;;;;104.78;63.50;;;;;;;19.80;49.56;100176.38;4145100;28;20045;-63
2021/10/29 11:22:47;;;;;;;70.82;42.65;;;;;;;19.80;49.62;100166.53;4146047;28;20077;-60
2021/10/29 11:24:52;;;;;;;49.85;32.88;;;;;;;19.89;49.22;100170.31;4145985;28;20053;-61
2021/10/29 11:27:03;;;;;;;51.45;32.30;;;;;;;20.00;49.18;100169.41;4144357;28;20053;-60
2021/10/29 11:29:09;;;;;;;50.47;30.63;;;;;;;20.07;49.11;100162.59;4143699;28;20048;-63
2021/10/29 11:31:28;;;;;;;42.08;26.38;;;;;;;20.19;48.64;100167.84;4136853;28;20509;-64
2021/10/29 11:33:32;;;;;;;40.03;23.45;;;;;;;20.26;48.79;100164.53;4143987;28;20081;-63
2021/10/29 11:35:37;;;;;;;32.88;21.25;;;;;;;20.34;48.31;100150.53;4145437;28;20065;-61
2021/10/29 11:37:41;;;;;;;31.52;19.52;;;;;;;20.47;48.13;100152.13;4144928;28;20054;-62